createdAt,value
2022-09-18T00:01:39.199Z,12.30
2022-09-18T00:04:41.716Z,12.26
2022-09-18T00:07:45.542Z,12.20
2022-09-18T00:10:48.046Z,12.17
2022-09-18T00:13:51.365Z,12.05
2022-09-18T00:16:54.092Z,12.33
2022-09-18T00:19:56.583Z,12.20
2022-09-18T00:23:00.419Z,12.26
2022-09-18T00:26:03.296Z,12.21
2022-09-18T00:29:07.252Z,12.22
2022-09-18T00:32:09.853Z,12.17
2022-09-18T00:35:12.396Z,12.21
2022-09-18T00:38:16.227Z,12.18
2022-09-18T00:41:23.765Z,12.09
2022-09-18T00:44:38.796Z,12.06
2022-09-18T00:47:44.909Z,12.19
2022-09-18T00:50:47.478Z,12.21
2022-09-18T00:53:56.834Z,12.28
2022-09-18T00:57:02.982Z,12.28
2022-09-18T01:00:10.693Z,12.31
2022-09-18T01:03:13.181Z,12.36
2022-09-18T01:06:21.960Z,12.43
2022-09-18T01:09:33.042Z,12.45
2022-09-18T01:12:45.872Z,12.33
2022-09-18T01:15:52.440Z,12.48
2022-09-18T01:19:02.251Z,12.42
2022-09-18T01:22:19.053Z,12.37
2022-09-18T01:25:34.090Z,12.41
2022-09-18T01:28:40.744Z,12.43
2022-09-18T01:31:48.025Z,12.32
2022-09-18T01:34:59.270Z,12.32
2022-09-18T01:38:07.657Z,12.43
2022-09-18T01:41:15.511Z,12.49
2022-09-18T01:44:23.376Z,12.41
2022-09-18T01:47:34.013Z,12.38
2022-09-18T01:50:41.800Z,12.44
2022-09-18T01:53:49.146Z,12.49
2022-09-18T01:56:55.314Z,12.55
2022-09-18T02:00:03.218Z,12.58
2022-09-18T02:03:10.710Z,12.52
2022-09-18T02:06:17.232Z,12.50
2022-09-18T02:09:19.828Z,12.62
2022-09-18T02:12:25.764Z,12.64
2022-09-18T02:15:33.267Z,12.51
2022-09-18T02:18:41.257Z,12.49
2022-09-18T02:21:46.599Z,12.38
2022-09-18T02:24:51.781Z,12.30
2022-09-18T02:27:56.022Z,12.19
2022-09-18T02:30:59.893Z,12.29
2022-09-18T02:34:02.937Z,12.29
2022-09-18T02:37:23.519Z,12.25
2022-09-18T02:40:35.211Z,12.10
2022-09-18T02:43:47.152Z,12.12
2022-09-18T02:47:00.520Z,12.00
2022-09-18T02:50:14.713Z,12.07
2022-09-18T02:53:24.424Z,12.09
2022-09-18T02:56:35.408Z,11.98
2022-09-18T02:59:40.920Z,12.01
2022-09-18T03:02:44.914Z,12.03
2022-09-18T03:05:47.454Z,11.95
2022-09-18T03:08:50.010Z,11.97
2022-09-18T03:11:53.862Z,12.00
2022-09-18T03:14:56.330Z,12.03
2022-09-18T03:18:00.259Z,11.89
2022-09-18T03:21:02.725Z,11.96
2022-09-18T03:24:05.537Z,12.08
2022-09-18T03:27:08.070Z,11.86
2022-09-18T03:30:11.493Z,11.73
2022-09-18T03:33:15.322Z,11.75
2022-09-18T03:36:17.844Z,11.75
2022-09-18T03:39:20.350Z,11.87
2022-09-18T03:42:22.861Z,11.38
2022-09-18T03:45:25.333Z,11.43
2022-09-18T03:48:29.168Z,11.54
2022-09-18T03:51:31.778Z,11.71
2022-09-18T03:54:34.300Z,11.84
2022-09-18T03:57:36.765Z,11.79
2022-09-18T04:00:39.306Z,11.75
2022-09-18T04:03:43.682Z,11.96
2022-09-18T04:06:46.180Z,11.83
2022-09-18T04:09:48.632Z,11.73
2022-09-18T04:12:51.142Z,11.89
2022-09-18T04:15:53.877Z,11.75
2022-09-18T04:18:58.044Z,11.80
2022-09-18T04:22:00.518Z,11.33
2022-09-18T04:25:03.351Z,11.40
2022-09-18T04:28:05.878Z,11.31
2022-09-18T04:31:09.718Z,11.38
2022-09-18T04:34:13.556Z,11.56
2022-09-18T04:37:16.045Z,11.51
2022-09-18T04:40:18.855Z,11.51
2022-09-18T04:43:21.385Z,11.39
2022-09-18T04:46:23.880Z,11.48
2022-09-18T04:49:27.726Z,11.37
2022-09-18T04:52:30.290Z,11.18
2022-09-18T04:55:32.826Z,11.15
2022-09-18T04:58:35.308Z,10.89
2022-09-18T05:01:37.867Z,10.95
2022-09-18T05:04:41.714Z,11.05
2022-09-18T05:07:44.423Z,10.91
2022-09-18T05:10:46.939Z,10.95
2022-09-18T05:13:49.682Z,10.95
2022-09-18T05:16:52.173Z,10.80
2022-09-18T05:19:55.981Z,10.81
2022-09-18T05:22:58.538Z,10.96
2022-09-18T05:26:01.047Z,10.87
2022-09-18T05:29:03.534Z,10.82
2022-09-18T05:32:07.043Z,10.82
2022-09-18T05:35:10.935Z,11.05
2022-09-18T05:38:13.542Z,11.10
2022-09-18T05:41:16.040Z,11.24
2022-09-18T05:44:18.762Z,11.25
2022-09-18T05:47:21.224Z,11.36
2022-09-18T05:50:25.862Z,11.33
2022-09-18T05:53:28.366Z,11.16
2022-09-18T05:56:30.835Z,11.13
2022-09-18T05:59:33.313Z,11.19
2022-09-18T06:02:35.894Z,11.14
2022-09-18T06:05:40.994Z,11.13
2022-09-18T06:08:43.490Z,10.94
2022-09-18T06:11:45.991Z,10.87
2022-09-18T06:14:48.482Z,11.01
2022-09-18T06:17:52.858Z,11.07
2022-09-18T06:20:58.256Z,10.95
2022-09-18T06:24:00.979Z,10.90
2022-09-18T06:27:03.478Z,11.03
2022-09-18T06:30:06.998Z,11.23
2022-09-18T06:33:11.332Z,11.18
2022-09-18T06:36:16.224Z,11.21
2022-09-18T06:39:18.724Z,11.02
2022-09-18T06:42:21.202Z,11.21
2022-09-18T06:45:24.021Z,11.39
2022-09-18T06:48:29.159Z,11.32
2022-09-18T06:51:33.027Z,11.34
2022-09-18T06:54:35.515Z,11.36
2022-09-18T06:57:38.001Z,11.46
2022-09-18T07:00:40.539Z,11.63
2022-09-18T07:03:43.081Z,11.56
2022-09-18T07:06:47.420Z,11.37
2022-09-18T07:09:50.152Z,11.32
2022-09-18T07:12:56.792Z,11.34
2022-09-18T07:15:59.386Z,11.28
2022-09-18T07:19:02.070Z,11.44
2022-09-18T07:22:06.106Z,11.45
2022-09-18T07:25:10.487Z,11.63
2022-09-18T07:28:13.078Z,11.65
2022-09-18T07:31:15.677Z,11.67
2022-09-18T07:34:18.495Z,11.47
2022-09-18T07:37:22.322Z,11.69
2022-09-18T07:40:24.877Z,11.52
2022-09-18T07:43:27.532Z,11.46
2022-09-18T07:46:30.313Z,11.63
2022-09-18T07:49:32.977Z,11.70
2022-09-18T07:52:36.830Z,11.74
2022-09-18T07:55:39.471Z,11.89
2022-09-18T07:58:42.062Z,11.77
2022-09-18T08:01:44.668Z,11.96
2022-09-18T08:04:47.262Z,12.04
2022-09-18T08:07:51.082Z,12.26
2022-09-18T08:10:56.200Z,12.46
2022-09-18T08:13:59.001Z,12.43
2022-09-18T08:17:01.476Z,12.45
2022-09-18T08:20:04.269Z,12.61
2022-09-18T08:23:09.678Z,12.76
2022-09-18T08:26:12.297Z,13.01
2022-09-18T08:29:19.258Z,13.13
2022-09-18T08:32:21.882Z,12.91
2022-09-18T08:35:24.362Z,12.74
2022-09-18T08:38:28.176Z,12.59
2022-09-18T08:41:44.543Z,12.65
2022-09-18T08:44:50.348Z,12.64
2022-09-18T08:47:58.635Z,12.52
2022-09-18T08:51:05.685Z,12.90
2022-09-18T08:54:20.651Z,13.39
2022-09-18T08:57:27.448Z,13.53
2022-09-18T09:00:35.403Z,13.33
2022-09-18T09:03:51.146Z,13.11
2022-09-18T09:07:05.676Z,13.16
2022-09-18T09:10:30.543Z,13.10
2022-09-18T09:14:10.356Z,13.11
2022-09-18T09:17:18.314Z,13.67
2022-09-18T09:20:24.418Z,13.83
2022-09-18T09:23:40.449Z,13.96
2022-09-18T09:26:44.285Z,13.83
2022-09-18T09:29:48.441Z,13.76
2022-09-18T09:32:55.299Z,12.94
2022-09-18T09:36:02.942Z,12.68
2022-09-18T09:39:13.251Z,12.67
2022-09-18T09:42:22.695Z,13.06
2022-09-18T09:45:29.181Z,13.20
2022-09-18T09:48:39.459Z,13.35
2022-09-18T09:51:52.313Z,13.10
2022-09-18T09:54:57.987Z,12.81
2022-09-18T09:58:14.133Z,13.63
2022-09-18T10:01:23.290Z,14.11
2022-09-18T10:04:35.497Z,14.21
2022-09-18T10:07:43.400Z,14.16
2022-09-18T10:10:52.291Z,13.67
2022-09-18T10:14:00.618Z,13.44
2022-09-18T10:17:05.082Z,13.40
2022-09-18T10:20:15.098Z,13.16
2022-09-18T10:23:25.673Z,13.20
2022-09-18T10:26:34.700Z,13.15
2022-09-18T10:29:38.837Z,13.10
2022-09-18T10:32:42.375Z,13.01
2022-09-18T10:35:45.840Z,13.47
2022-09-18T10:38:48.381Z,14.85
2022-09-18T10:41:50.910Z,15.77
2022-09-18T10:45:01.689Z,16.55
2022-09-18T10:48:07.957Z,17.32
2022-09-18T10:51:18.546Z,17.16
2022-09-18T10:54:23.031Z,17.14
2022-09-18T10:57:29.258Z,17.53
2022-09-18T11:00:45.005Z,17.95
2022-09-18T11:03:49.636Z,17.01
2022-09-18T11:06:52.470Z,16.02
2022-09-18T11:09:55.495Z,15.11
2022-09-18T11:12:59.543Z,14.25
2022-09-18T11:16:05.380Z,13.87
2022-09-18T11:19:15.589Z,13.97
2022-09-18T11:22:34.407Z,13.89
2022-09-18T11:25:36.895Z,13.65
2022-09-18T11:28:40.569Z,14.38
2022-09-18T11:31:47.909Z,15.47
2022-09-18T11:34:53.257Z,16.56
2022-09-18T11:37:59.329Z,16.75
2022-09-18T11:41:02.896Z,17.41
2022-09-18T11:44:12.607Z,17.70
2022-09-18T11:47:33.334Z,17.79
2022-09-18T11:50:37.771Z,18.06
2022-09-18T11:53:43.717Z,18.44
2022-09-18T11:56:50.663Z,17.96
2022-09-18T11:59:58.462Z,18.44
2022-09-18T12:03:14.137Z,18.32
2022-09-18T12:06:24.830Z,18.24
2022-09-18T12:09:36.280Z,17.72
2022-09-18T12:12:44.084Z,17.60
2022-09-18T12:15:53.711Z,16.77
2022-09-18T12:19:02.724Z,15.44
2022-09-18T12:22:12.234Z,14.86
2022-09-18T12:25:16.735Z,14.37
2022-09-18T12:28:28.785Z,14.45
2022-09-18T12:31:42.260Z,15.05
2022-09-18T12:34:56.956Z,16.30
2022-09-18T12:38:10.533Z,16.27
2022-09-18T12:41:33.375Z,17.59
2022-09-18T12:44:49.792Z,17.67
2022-09-18T12:48:06.660Z,18.30
2022-09-18T12:51:38.861Z,17.62
2022-09-18T12:55:13.853Z,15.67
2022-09-18T12:58:36.418Z,15.65
2022-09-18T13:01:45.314Z,16.02
2022-09-18T13:04:51.142Z,15.80
2022-09-18T13:08:02.834Z,14.96
2022-09-18T13:11:17.184Z,14.85
2022-09-18T13:14:26.245Z,14.56
2022-09-18T13:17:36.081Z,14.53
2022-09-18T13:20:42.678Z,14.50
2022-09-18T13:23:48.499Z,13.67
2022-09-18T13:26:52.850Z,13.73
2022-09-18T13:29:58.934Z,13.87
2022-09-18T13:33:02.825Z,14.20
2022-09-18T13:36:05.745Z,14.38
2022-09-18T13:39:18.456Z,14.21
2022-09-18T13:42:33.845Z,14.51
2022-09-18T13:45:39.677Z,14.53
2022-09-18T13:48:46.512Z,14.25
2022-09-18T13:51:49.226Z,13.72
2022-09-18T13:55:03.227Z,13.76
2022-09-18T13:58:35.646Z,14.03
2022-09-18T14:02:00.636Z,13.82
2022-09-18T14:05:31.646Z,13.30
2022-09-18T14:08:38.206Z,13.07
2022-09-18T14:11:42.099Z,13.51
2022-09-18T14:14:56.984Z,13.57
2022-09-18T14:18:07.831Z,13.59
2022-09-18T14:21:20.637Z,13.59
2022-09-18T14:24:38.730Z,13.48
2022-09-18T14:27:50.670Z,12.49
2022-09-18T14:31:13.963Z,12.32
2022-09-18T14:34:23.090Z,12.17
2022-09-18T14:37:28.165Z,11.94
2022-09-18T14:40:31.950Z,12.10
2022-09-18T14:43:38.419Z,12.01
2022-09-18T14:46:53.208Z,12.07
2022-09-18T14:49:55.741Z,12.20
2022-09-18T14:52:59.915Z,12.20
2022-09-18T14:56:08.025Z,12.31
2022-09-18T14:59:18.686Z,12.45
2022-09-18T15:02:25.701Z,12.64
2022-09-18T15:05:29.272Z,12.73
2022-09-18T15:08:31.825Z,13.07
2022-09-18T15:11:52.261Z,13.24
2022-09-18T15:14:58.979Z,13.43
2022-09-18T15:18:02.313Z,13.48
2022-09-18T15:21:05.305Z,13.60
2022-09-18T15:24:16.265Z,13.55
2022-09-18T15:27:19.845Z,13.47
2022-09-18T15:30:25.761Z,13.57
2022-09-18T15:33:28.951Z,13.65
2022-09-18T15:36:34.513Z,13.76
2022-09-18T15:39:41.203Z,13.47
2022-09-18T15:42:57.865Z,13.19
2022-09-18T15:46:04.628Z,13.30
2022-09-18T15:49:28.945Z,13.03
2022-09-18T15:52:38.813Z,12.96
2022-09-18T15:55:53.903Z,12.80
2022-09-18T15:58:58.960Z,12.96
2022-09-18T16:02:08.020Z,13.20
2022-09-18T16:05:13.001Z,13.27
2022-09-18T16:08:20.268Z,13.22
2022-09-18T16:11:49.872Z,12.90
2022-09-18T16:15:01.925Z,13.05
2022-09-18T16:18:24.193Z,12.81
2022-09-18T16:21:30.209Z,12.62
2022-09-18T16:24:32.817Z,12.67
2022-09-18T16:27:35.412Z,12.58
2022-09-18T16:30:38.115Z,12.72
2022-09-18T16:33:51.949Z,12.65
2022-09-18T16:36:55.424Z,12.82
2022-09-18T16:39:57.956Z,12.92
2022-09-18T16:43:00.438Z,12.95
2022-09-18T16:46:02.951Z,12.61
2022-09-18T16:49:07.108Z,12.50
2022-09-18T16:52:10.429Z,12.58
2022-09-18T16:55:13.020Z,12.68
2022-09-18T16:58:17.778Z,12.66
2022-09-18T17:01:23.082Z,12.65
2022-09-18T17:04:27.311Z,12.78
2022-09-18T17:07:30.335Z,12.60
2022-09-18T17:10:33.690Z,12.68
2022-09-18T17:13:36.202Z,12.61
2022-09-18T17:16:44.707Z,12.31
2022-09-18T17:19:48.968Z,12.50
2022-09-18T17:22:51.690Z,12.22
2022-09-18T17:26:03.627Z,12.17
2022-09-18T17:29:07.013Z,12.36
2022-09-18T17:32:09.504Z,12.50
2022-09-18T17:35:13.349Z,12.30
2022-09-18T17:38:15.909Z,12.19
2022-09-18T17:41:19.876Z,12.25
2022-09-18T17:44:24.037Z,12.22
2022-09-18T17:47:26.534Z,12.44
2022-09-18T17:50:30.352Z,12.56
2022-09-18T17:53:34.378Z,12.56
2022-09-18T17:56:37.448Z,12.20
2022-09-18T17:59:41.057Z,12.32
2022-09-18T18:02:43.557Z,12.36
2022-09-18T18:05:52.941Z,12.47
2022-09-18T18:08:56.056Z,12.51
2022-09-18T18:11:58.868Z,12.54
2022-09-18T18:15:01.330Z,12.43
2022-09-18T18:18:03.817Z,12.45
2022-09-18T18:21:08.526Z,12.40
2022-09-18T18:24:14.880Z,12.32
2022-09-18T18:27:20.477Z,12.17
2022-09-18T18:30:24.035Z,12.18
2022-09-18T18:33:28.024Z,11.94
2022-09-18T18:36:33.631Z,11.98
2022-09-18T18:39:36.135Z,11.95
2022-09-18T18:42:38.597Z,11.97
2022-09-18T18:45:52.252Z,11.81
2022-09-18T18:49:02.786Z,11.81
2022-09-18T18:52:07.317Z,11.72
2022-09-18T18:55:10.064Z,11.75
2022-09-18T18:58:13.045Z,11.66
2022-09-18T19:01:17.242Z,11.72
2022-09-18T19:04:19.905Z,11.71
2022-09-18T19:07:23.819Z,11.70
2022-09-18T19:10:27.003Z,11.59
2022-09-18T19:13:30.227Z,11.51
2022-09-18T19:16:32.979Z,11.63
2022-09-18T19:19:35.485Z,11.59
2022-09-18T19:22:39.323Z,11.66
2022-09-18T19:25:41.791Z,11.71
2022-09-18T19:28:44.282Z,11.79
2022-09-18T19:31:47.976Z,11.88
2022-09-18T19:34:50.574Z,11.89
2022-09-18T19:37:54.534Z,11.86
2022-09-18T19:40:57.028Z,11.98
2022-09-18T19:44:02.277Z,12.01
2022-09-18T19:47:08.171Z,12.08
2022-09-18T19:50:19.950Z,12.11
2022-09-18T19:53:24.020Z,12.20
2022-09-18T19:56:42.154Z,12.28
2022-09-18T19:59:46.870Z,12.20
2022-09-18T20:02:49.684Z,12.22
2022-09-18T20:05:52.202Z,12.28
2022-09-18T20:08:56.741Z,12.38
2022-09-18T20:11:59.223Z,12.36
2022-09-18T20:15:02.448Z,12.21
2022-09-18T20:18:07.269Z,12.04
2022-09-18T20:21:12.301Z,11.96
2022-09-18T20:24:16.132Z,12.00
2022-09-18T20:27:20.237Z,11.94
2022-09-18T20:30:22.869Z,12.01
2022-09-18T20:33:25.441Z,11.78
2022-09-18T20:36:29.342Z,11.95
2022-09-18T20:39:33.322Z,11.94
2022-09-18T20:42:36.070Z,11.77
2022-09-18T20:45:39.358Z,11.82
2022-09-18T20:48:45.435Z,11.96
2022-09-18T20:51:47.942Z,11.98
2022-09-18T20:54:52.746Z,11.94
2022-09-18T20:57:57.355Z,12.02
2022-09-18T21:01:08.217Z,12.10
2022-09-18T21:04:17.302Z,12.12
2022-09-18T21:07:21.293Z,11.81
2022-09-18T21:10:25.121Z,11.80
2022-09-18T21:13:27.601Z,11.90
2022-09-18T21:16:33.595Z,11.85
2022-09-18T21:19:38.378Z,12.00
2022-09-18T21:22:54.902Z,11.92
2022-09-18T21:25:58.740Z,11.68
2022-09-18T21:29:02.793Z,11.62
2022-09-18T21:32:06.121Z,11.81
2022-09-18T21:35:09.330Z,11.96
2022-09-18T21:38:12.951Z,12.00
2022-09-18T21:41:18.101Z,11.89
2022-09-18T21:44:26.886Z,11.81
2022-09-18T21:47:29.439Z,11.73
2022-09-18T21:50:31.929Z,11.99
2022-09-18T21:53:35.485Z,12.17
2022-09-18T21:56:39.319Z,12.12
2022-09-18T21:59:41.780Z,12.22
2022-09-18T22:02:44.289Z,12.12
2022-09-18T22:05:47.007Z,12.26
2022-09-18T22:08:50.831Z,12.23
2022-09-18T22:11:55.614Z,12.28
2022-09-18T22:14:58.254Z,11.68
2022-09-18T22:18:00.812Z,11.75
2022-09-18T22:21:03.284Z,11.71
2022-09-18T22:24:08.887Z,12.10
2022-09-18T22:27:12.981Z,12.20
2022-09-18T22:30:15.655Z,12.14
2022-09-18T22:33:18.128Z,12.25
2022-09-18T22:36:22.753Z,12.37
2022-09-18T22:39:25.248Z,12.38
2022-09-18T22:42:30.258Z,12.25
2022-09-18T22:45:32.725Z,12.16
2022-09-18T22:48:36.220Z,12.20
2022-09-18T22:51:40.748Z,11.94
2022-09-18T22:54:43.287Z,12.11
2022-09-18T22:57:47.114Z,12.02
2022-09-18T23:00:49.617Z,11.97
2022-09-18T23:03:55.649Z,11.78
2022-09-18T23:06:59.075Z,11.95
2022-09-18T23:10:01.584Z,11.98
2022-09-18T23:13:05.617Z,11.80
2022-09-18T23:16:11.157Z,11.86
2022-09-18T23:19:16.048Z,11.90
2022-09-18T23:22:18.549Z,11.90
2022-09-18T23:25:21.046Z,11.83
2022-09-18T23:28:24.901Z,11.83
2022-09-18T23:31:29.219Z,11.72
2022-09-18T23:34:33.641Z,11.66
2022-09-18T23:37:36.136Z,11.56
2022-09-18T23:40:38.917Z,11.60
2022-09-18T23:43:47.138Z,11.42
2022-09-18T23:46:50.797Z,11.42
2022-09-18T23:49:53.305Z,11.17
2022-09-18T23:52:55.773Z,11.31
2022-09-18T23:56:03.060Z,11.36
2022-09-18T23:59:08.029Z,11.13
